createdAt,value
2017-01-16T00:00:01.602Z,-2.6
2017-01-16T00:00:20.269Z,-2.6
2017-01-16T00:00:38.929Z,-2.6
2017-01-16T00:00:57.590Z,-2.6
2017-01-16T00:01:16.257Z,-2.6
2017-01-16T00:01:34.920Z,-2.6
2017-01-16T00:01:53.587Z,-2.6
2017-01-16T00:02:12.244Z,-2.6
2017-01-16T00:02:30.910Z,-2.6
2017-01-16T00:02:49.569Z,-2.6
2017-01-16T00:03:08.251Z,-2.6
2017-01-16T00:03:26.913Z,-2.6
2017-01-16T00:03:45.607Z,-2.6
2017-01-16T00:04:04.272Z,-2.6
2017-01-16T00:04:22.937Z,-2.6
2017-01-16T00:04:41.598Z,-2.6
2017-01-16T00:05:00.261Z,-2.6
2017-01-16T00:05:18.925Z,-2.6
2017-01-16T00:05:37.588Z,-2.6
2017-01-16T00:05:56.254Z,-2.6
2017-01-16T00:06:14.915Z,-2.6
2017-01-16T00:06:33.587Z,-2.6
2017-01-16T00:06:52.249Z,-2.6
2017-01-16T00:07:10.906Z,-2.6
2017-01-16T00:07:29.564Z,-2.6
2017-01-16T00:07:48.225Z,-2.6
2017-01-16T00:08:06.888Z,-2.6
2017-01-16T00:08:25.580Z,-2.6
2017-01-16T00:08:44.241Z,-2.6
2017-01-16T00:09:02.902Z,-2.6
2017-01-16T00:09:21.560Z,-2.6
2017-01-16T00:09:40.225Z,-2.6
2017-01-16T00:09:58.895Z,-2.6
2017-01-16T00:10:17.554Z,-2.6
2017-01-16T00:10:36.251Z,-2.6
2017-01-16T00:10:54.922Z,-2.6
2017-01-16T00:11:13.591Z,-2.6
2017-01-16T00:11:32.255Z,-2.6
2017-01-16T00:11:50.919Z,-2.6
2017-01-16T00:12:09.583Z,-2.5
2017-01-16T00:12:28.256Z,-2.5
2017-01-16T00:12:46.915Z,-2.5
2017-01-16T00:13:05.606Z,-2.5
2017-01-16T00:13:24.268Z,-2.6
2017-01-16T00:13:42.936Z,-2.5
2017-01-16T00:14:01.597Z,-2.6
2017-01-16T00:14:20.258Z,-2.5
2017-01-16T00:14:38.920Z,-2.5
2017-01-16T00:14:57.584Z,-2.5
2017-01-16T00:15:16.247Z,-2.5
2017-01-16T00:15:34.906Z,-2.6
2017-01-16T00:15:53.566Z,-2.6
2017-01-16T00:16:12.225Z,-2.6
2017-01-16T00:16:30.884Z,-2.6
2017-01-16T00:16:49.551Z,-2.6
2017-01-16T00:17:08.216Z,-2.6
2017-01-16T00:17:26.880Z,-2.6
2017-01-16T00:17:45.579Z,-2.6
2017-01-16T00:18:04.237Z,-2.6
2017-01-16T00:18:22.900Z,-2.6
2017-01-16T00:18:41.561Z,-2.6
2017-01-16T00:19:00.223Z,-2.6
2017-01-16T00:19:18.880Z,-2.6
2017-01-16T00:19:37.539Z,-2.6
2017-01-16T00:19:56.202Z,-2.6
2017-01-16T00:20:14.861Z,-2.6
2017-01-16T00:20:33.525Z,-2.6
2017-01-16T00:20:52.192Z,-2.6
2017-01-16T00:21:10.852Z,-2.6
2017-01-16T00:21:29.516Z,-2.6
2017-01-16T00:21:48.177Z,-2.6
2017-01-16T00:22:06.837Z,-2.6
2017-01-16T00:22:25.525Z,-2.6
2017-01-16T00:22:44.183Z,-2.6
2017-01-16T00:23:02.845Z,-2.6
2017-01-16T00:23:21.506Z,-2.6
2017-01-16T00:23:40.194Z,-2.6
2017-01-16T00:23:58.852Z,-2.6
2017-01-16T00:24:17.511Z,-2.6
2017-01-16T00:24:36.179Z,-2.6
2017-01-16T00:24:54.841Z,-2.6
2017-01-16T00:25:13.500Z,-2.6
2017-01-16T00:25:32.159Z,-2.6
2017-01-16T00:25:50.828Z,-2.6
2017-01-16T00:26:09.495Z,-2.6
2017-01-16T00:26:28.153Z,-2.6
2017-01-16T00:26:46.816Z,-2.6
2017-01-16T00:27:05.509Z,-2.6
2017-01-16T00:27:24.170Z,-2.6
2017-01-16T00:27:42.831Z,-2.6
2017-01-16T00:28:01.491Z,-2.6
2017-01-16T00:28:20.152Z,-2.6
2017-01-16T00:28:38.813Z,-2.6
2017-01-16T00:28:57.476Z,-2.6
2017-01-16T00:29:16.133Z,-2.6
2017-01-16T00:29:34.795Z,-2.6
2017-01-16T00:29:53.455Z,-2.6
2017-01-16T00:30:12.115Z,-2.6
2017-01-16T00:30:30.785Z,-2.6
2017-01-16T00:30:49.449Z,-2.6
2017-01-16T00:31:08.119Z,-2.6
2017-01-16T00:31:26.788Z,-2.6
2017-01-16T00:31:45.484Z,-2.6
2017-01-16T00:32:04.145Z,-2.6
2017-01-16T00:32:22.803Z,-2.6
2017-01-16T00:32:41.462Z,-2.6
2017-01-16T00:33:00.127Z,-2.6
2017-01-16T00:33:18.787Z,-2.6
2017-01-16T00:33:37.454Z,-2.6
2017-01-16T00:33:56.109Z,-2.6
2017-01-16T00:34:14.773Z,-2.6
2017-01-16T00:34:33.433Z,-2.6
2017-01-16T00:34:52.096Z,-2.6
2017-01-16T00:35:10.760Z,-2.6
2017-01-16T00:35:29.422Z,-2.7
2017-01-16T00:35:48.093Z,-2.7
2017-01-16T00:36:06.756Z,-2.6
2017-01-16T00:36:25.441Z,-2.6
2017-01-16T00:36:44.110Z,-2.7
2017-01-16T00:37:02.777Z,-2.6
2017-01-16T00:37:21.436Z,-2.6
2017-01-16T00:37:40.093Z,-2.6
2017-01-16T00:37:58.762Z,-2.6
2017-01-16T00:38:17.429Z,-2.6
2017-01-16T00:38:36.091Z,-2.6
2017-01-16T00:38:54.756Z,-2.6
2017-01-16T00:39:13.422Z,-2.6
2017-01-16T00:39:32.078Z,-2.6
2017-01-16T00:39:50.734Z,-2.6
2017-01-16T00:40:09.389Z,-2.6
2017-01-16T00:40:28.049Z,-2.6
2017-01-16T00:40:46.715Z,-2.6
2017-01-16T00:41:05.397Z,-2.6
2017-01-16T00:41:24.060Z,-2.6
2017-01-16T00:41:42.724Z,-2.6
2017-01-16T00:42:01.379Z,-2.6
2017-01-16T00:42:20.048Z,-2.6
2017-01-16T00:42:38.724Z,-2.6
2017-01-16T00:42:57.392Z,-2.6
2017-01-16T00:43:16.055Z,-2.6
2017-01-16T00:43:34.715Z,-2.6
2017-01-16T00:43:53.370Z,-2.6
2017-01-16T00:44:12.030Z,-2.7
2017-01-16T00:44:30.706Z,-2.6
2017-01-16T00:44:49.374Z,-2.6
2017-01-16T00:45:08.032Z,-2.6
2017-01-16T00:45:26.704Z,-2.6
2017-01-16T00:45:45.385Z,-2.7
2017-01-16T00:46:04.051Z,-2.7
2017-01-16T00:46:22.706Z,-2.7
2017-01-16T00:46:41.369Z,-2.7
2017-01-16T00:47:00.036Z,-2.7
2017-01-16T00:47:18.696Z,-2.7
2017-01-16T00:47:37.351Z,-2.6
2017-01-16T00:47:56.026Z,-2.6
2017-01-16T00:48:14.691Z,-2.6
2017-01-16T00:48:33.353Z,-2.7
2017-01-16T00:48:52.016Z,-2.7
2017-01-16T00:49:10.685Z,-2.7
2017-01-16T00:49:29.356Z,-2.7
2017-01-16T00:49:48.018Z,-2.7
2017-01-16T00:50:06.677Z,-2.7
2017-01-16T00:50:25.363Z,-2.7
2017-01-16T00:50:44.034Z,-2.7
2017-01-16T00:51:02.693Z,-2.7
2017-01-16T00:51:21.357Z,-2.7
2017-01-16T00:51:40.052Z,-2.7
2017-01-16T00:51:58.710Z,-2.7
2017-01-16T00:52:17.377Z,-2.7
2017-01-16T00:52:36.048Z,-2.7
2017-01-16T00:52:54.718Z,-2.7
2017-01-16T00:53:13.383Z,-2.7
2017-01-16T00:53:32.042Z,-2.7
2017-01-16T00:53:50.697Z,-2.7
2017-01-16T00:54:09.360Z,-2.7
2017-01-16T00:54:28.023Z,-2.7
2017-01-16T00:54:46.689Z,-2.7
2017-01-16T00:55:05.373Z,-2.7
2017-01-16T00:55:24.044Z,-2.7
2017-01-16T00:55:42.704Z,-2.7
2017-01-16T00:56:01.368Z,-2.7
2017-01-16T00:56:20.026Z,-2.7
2017-01-16T00:56:38.690Z,-2.7
2017-01-16T00:56:57.355Z,-2.7
2017-01-16T00:57:16.015Z,-2.7
2017-01-16T00:57:34.685Z,-2.7
2017-01-16T00:57:53.351Z,-2.7
2017-01-16T00:58:12.010Z,-2.7
2017-01-16T00:58:30.672Z,-2.7
2017-01-16T00:58:49.331Z,-2.7
2017-01-16T00:59:07.997Z,-2.7
2017-01-16T00:59:26.658Z,-2.7
2017-01-16T00:59:45.345Z,-2.7
2017-01-16T01:00:04.007Z,-2.7
2017-01-16T01:00:22.672Z,-2.7
2017-01-16T01:00:41.333Z,-2.7
2017-01-16T01:00:59.998Z,-2.7
2017-01-16T01:01:18.688Z,-2.7
2017-01-16T01:01:37.348Z,-2.7
2017-01-16T01:01:56.017Z,-2.7
2017-01-16T01:02:14.675Z,-2.7
2017-01-16T01:02:33.333Z,-2.7
2017-01-16T01:02:52.001Z,-2.7
2017-01-16T01:03:10.658Z,-2.7
2017-01-16T01:03:29.321Z,-2.7
2017-01-16T01:03:47.978Z,-2.7
2017-01-16T01:04:06.651Z,-2.7
2017-01-16T01:04:25.339Z,-2.7
2017-01-16T01:04:44.002Z,-2.7
2017-01-16T01:05:02.661Z,-2.7
2017-01-16T01:05:21.320Z,-2.7
2017-01-16T01:05:39.986Z,-2.7
2017-01-16T01:05:58.649Z,-2.7
2017-01-16T01:06:17.307Z,-2.7
2017-01-16T01:06:35.972Z,-2.7
2017-01-16T01:06:54.639Z,-2.7
2017-01-16T01:07:13.300Z,-2.7
2017-01-16T01:07:31.955Z,-2.7
2017-01-16T01:07:50.616Z,-2.7
2017-01-16T01:08:09.282Z,-2.7
2017-01-16T01:08:27.945Z,-2.7
2017-01-16T01:08:46.604Z,-2.7
2017-01-16T01:09:05.293Z,-2.7
2017-01-16T01:09:23.954Z,-2.7
2017-01-16T01:09:42.617Z,-2.7
2017-01-16T01:10:01.278Z,-2.7
2017-01-16T01:10:19.951Z,-2.7
2017-01-16T01:10:38.626Z,-2.7
2017-01-16T01:10:57.295Z,-2.7
2017-01-16T01:11:15.950Z,-2.7
2017-01-16T01:11:34.619Z,-2.7
2017-01-16T01:11:53.286Z,-2.7
2017-01-16T01:12:11.946Z,-2.7
2017-01-16T01:12:30.608Z,-2.7
2017-01-16T01:12:49.268Z,-2.7
2017-01-16T01:13:07.934Z,-2.7
2017-01-16T01:13:26.609Z,-2.7
2017-01-16T01:13:45.298Z,-2.7
2017-01-16T01:14:03.958Z,-2.7
2017-01-16T01:14:22.621Z,-2.7
2017-01-16T01:14:41.309Z,-2.7
2017-01-16T01:14:59.976Z,-2.7
2017-01-16T01:15:18.647Z,-2.7
2017-01-16T01:15:37.313Z,-2.7
2017-01-16T01:15:55.970Z,-2.7
2017-01-16T01:16:14.630Z,-2.7
2017-01-16T01:16:33.297Z,-2.7
2017-01-16T01:16:51.960Z,-2.7
2017-01-16T01:17:10.617Z,-2.7
2017-01-16T01:17:29.285Z,-2.7
2017-01-16T01:17:47.947Z,-2.7
2017-01-16T01:18:06.610Z,-2.7
2017-01-16T01:18:25.296Z,-2.7
2017-01-16T01:18:43.962Z,-2.7
2017-01-16T01:19:02.619Z,-2.7
2017-01-16T01:19:21.281Z,-2.7
2017-01-16T01:19:39.942Z,-2.7
2017-01-16T01:19:58.603Z,-2.7
2017-01-16T01:20:17.266Z,-2.7
2017-01-16T01:20:35.929Z,-2.7
2017-01-16T01:20:54.591Z,-2.7
2017-01-16T01:21:13.258Z,-2.7
2017-01-16T01:21:31.918Z,-2.7
2017-01-16T01:21:50.582Z,-2.7
2017-01-16T01:22:09.252Z,-2.6
2017-01-16T01:22:27.915Z,-2.6
2017-01-16T01:22:46.576Z,-2.7
2017-01-16T01:23:05.260Z,-2.7
2017-01-16T01:23:23.920Z,-2.6
2017-01-16T01:23:42.583Z,-2.6
2017-01-16T01:24:01.252Z,-2.6
2017-01-16T01:24:19.915Z,-2.6
2017-01-16T01:24:38.580Z,-2.6
2017-01-16T01:24:57.246Z,-2.6
2017-01-16T01:25:15.917Z,-2.6
2017-01-16T01:25:34.582Z,-2.7
2017-01-16T01:25:53.241Z,-2.7
2017-01-16T01:26:11.913Z,-2.7
2017-01-16T01:26:30.575Z,-2.7
2017-01-16T01:26:49.239Z,-2.7
2017-01-16T01:27:07.903Z,-2.7
2017-01-16T01:27:26.574Z,-2.7
2017-01-16T01:27:45.264Z,-2.7
2017-01-16T01:28:03.927Z,-2.6
2017-01-16T01:28:22.583Z,-2.7
2017-01-16T01:28:41.253Z,-2.7
2017-01-16T01:28:59.912Z,-2.7
2017-01-16T01:29:18.579Z,-2.7
2017-01-16T01:29:37.264Z,-2.7
2017-01-16T01:29:55.965Z,-2.7
2017-01-16T01:30:14.629Z,-2.7
2017-01-16T01:30:33.288Z,-2.7
2017-01-16T01:30:51.953Z,-2.7
2017-01-16T01:31:10.618Z,-2.7
2017-01-16T01:31:29.284Z,-2.7
2017-01-16T01:31:47.947Z,-2.7
2017-01-16T01:32:06.609Z,-2.7
2017-01-16T01:32:25.305Z,-2.7
2017-01-16T01:32:43.960Z,-2.7
2017-01-16T01:33:02.614Z,-2.7
2017-01-16T01:33:21.281Z,-2.7
2017-01-16T01:33:39.942Z,-2.6
2017-01-16T01:33:58.605Z,-2.7
2017-01-16T01:34:17.290Z,-2.7
2017-01-16T01:34:35.968Z,-2.7
2017-01-16T01:34:54.628Z,-2.7
2017-01-16T01:35:13.291Z,-2.7
2017-01-16T01:35:31.949Z,-2.7
2017-01-16T01:35:50.619Z,-2.6
2017-01-16T01:36:09.279Z,-2.6
2017-01-16T01:36:27.940Z,-2.7
2017-01-16T01:36:46.626Z,-2.6
2017-01-16T01:37:05.321Z,-2.6
2017-01-16T01:37:23.994Z,-2.6
2017-01-16T01:37:42.651Z,-2.6
2017-01-16T01:38:01.329Z,-2.6
2017-01-16T01:38:19.999Z,-2.6
2017-01-16T01:38:38.695Z,-2.6
2017-01-16T01:38:57.362Z,-2.6
2017-01-16T01:39:16.036Z,-2.6
2017-01-16T01:39:34.697Z,-2.6
2017-01-16T01:39:53.367Z,-2.7
2017-01-16T01:40:12.038Z,-2.6
2017-01-16T01:40:30.699Z,-2.7
2017-01-16T01:40:49.357Z,-2.7
2017-01-16T01:41:08.018Z,-2.7
2017-01-16T01:41:26.690Z,-2.7
2017-01-16T01:41:45.384Z,-2.7
2017-01-16T01:42:04.042Z,-2.7
2017-01-16T01:42:22.746Z,-2.7
2017-01-16T01:42:41.407Z,-2.7
2017-01-16T01:43:00.085Z,-2.7
2017-01-16T01:43:18.742Z,-2.6
2017-01-16T01:43:37.408Z,-2.6
2017-01-16T01:43:56.067Z,-2.6
2017-01-16T01:44:14.726Z,-2.6
2017-01-16T01:44:33.384Z,-2.6
2017-01-16T01:44:52.045Z,-2.6
2017-01-16T01:45:10.714Z,-2.7
2017-01-16T01:45:29.379Z,-2.7
2017-01-16T01:45:48.045Z,-2.6
2017-01-16T01:46:06.730Z,-2.7
2017-01-16T01:46:25.405Z,-2.6
2017-01-16T01:46:44.065Z,-2.6
2017-01-16T01:47:02.728Z,-2.7
2017-01-16T01:47:21.383Z,-2.6
2017-01-16T01:47:40.057Z,-2.7
2017-01-16T01:47:58.714Z,-2.7
2017-01-16T01:48:17.380Z,-2.7
2017-01-16T01:48:36.036Z,-2.7
2017-01-16T01:48:54.700Z,-2.7
2017-01-16T01:49:13.356Z,-2.7
2017-01-16T01:49:32.023Z,-2.7
2017-01-16T01:49:50.678Z,-2.7
2017-01-16T01:50:09.341Z,-2.7
2017-01-16T01:50:28.010Z,-2.7
2017-01-16T01:50:46.674Z,-2.7
2017-01-16T01:51:05.358Z,-2.7
2017-01-16T01:51:24.020Z,-2.7
2017-01-16T01:51:42.685Z,-2.7
2017-01-16T01:52:01.348Z,-2.7
2017-01-16T01:52:20.020Z,-2.7
2017-01-16T01:52:38.685Z,-2.7
2017-01-16T01:52:57.344Z,-2.7
2017-01-16T01:53:16.009Z,-2.7
2017-01-16T01:53:34.679Z,-2.7
2017-01-16T01:53:53.381Z,-2.7
2017-01-16T01:54:12.047Z,-2.7
2017-01-16T01:54:30.709Z,-2.7
2017-01-16T01:54:49.367Z,-2.7
2017-01-16T01:55:08.027Z,-2.7
2017-01-16T01:55:26.695Z,-2.7
2017-01-16T01:55:45.382Z,-2.7
2017-01-16T01:56:04.037Z,-2.7
2017-01-16T01:56:22.706Z,-2.7
2017-01-16T01:56:41.375Z,-2.7
2017-01-16T01:57:00.061Z,-2.7
2017-01-16T01:57:18.719Z,-2.7
2017-01-16T01:57:37.389Z,-2.7
2017-01-16T01:57:56.053Z,-2.7
2017-01-16T01:58:14.711Z,-2.7
2017-01-16T01:58:33.369Z,-2.7
2017-01-16T01:58:52.035Z,-2.7
2017-01-16T01:59:10.698Z,-2.7
2017-01-16T01:59:29.360Z,-2.7
2017-01-16T01:59:48.017Z,-2.7
2017-01-16T02:00:06.681Z,-2.7
2017-01-16T02:00:25.358Z,-2.7
2017-01-16T02:00:44.010Z,-2.7
2017-01-16T02:01:02.677Z,-2.7
2017-01-16T02:01:21.337Z,-2.7
2017-01-16T02:01:40.019Z,-2.7
2017-01-16T02:01:58.684Z,-2.7
2017-01-16T02:02:17.340Z,-2.8
2017-01-16T02:02:36.006Z,-2.8
2017-01-16T02:02:54.665Z,-2.8
2017-01-16T02:03:13.325Z,-2.8
2017-01-16T02:03:31.988Z,-2.8
2017-01-16T02:03:50.647Z,-2.8
2017-01-16T02:04:09.307Z,-2.8
2017-01-16T02:04:27.975Z,-2.8
2017-01-16T02:04:46.638Z,-2.8
2017-01-16T02:05:05.314Z,-2.8
2017-01-16T02:05:23.975Z,-2.8
2017-01-16T02:05:42.637Z,-2.8
2017-01-16T02:06:01.299Z,-2.8
2017-01-16T02:06:20.004Z,-2.8
2017-01-16T02:06:38.668Z,-2.8
2017-01-16T02:06:57.333Z,-2.8
2017-01-16T02:07:15.990Z,-2.8
2017-01-16T02:07:34.645Z,-2.8
2017-01-16T02:07:53.311Z,-2.8
2017-01-16T02:08:11.968Z,-2.8
2017-01-16T02:08:30.634Z,-2.8
2017-01-16T02:08:49.296Z,-2.8
2017-01-16T02:09:07.963Z,-2.8
2017-01-16T02:09:26.631Z,-2.8
2017-01-16T02:09:45.313Z,-2.8
2017-01-16T02:10:03.973Z,-2.8
2017-01-16T02:10:22.642Z,-2.8
2017-01-16T02:10:41.298Z,-2.8
2017-01-16T02:10:59.987Z,-2.8
2017-01-16T02:11:18.653Z,-2.8
2017-01-16T02:11:37.324Z,-2.8
2017-01-16T02:11:55.986Z,-2.8
2017-01-16T02:12:14.651Z,-2.8
2017-01-16T02:12:33.315Z,-2.8
2017-01-16T02:12:51.983Z,-2.8
2017-01-16T02:13:10.646Z,-2.8
2017-01-16T02:13:29.308Z,-2.8
2017-01-16T02:13:47.973Z,-2.8
2017-01-16T02:14:06.632Z,-2.8
2017-01-16T02:14:25.298Z,-2.9
2017-01-16T02:14:43.969Z,-2.9
2017-01-16T02:15:02.632Z,-2.9
2017-01-16T02:15:21.306Z,-2.9
2017-01-16T02:15:39.984Z,-2.9
2017-01-16T02:15:58.648Z,-2.9
2017-01-16T02:16:17.318Z,-2.9
2017-01-16T02:16:35.974Z,-2.9
2017-01-16T02:16:54.647Z,-2.9
2017-01-16T02:17:13.310Z,-3
2017-01-16T02:17:31.970Z,-3
2017-01-16T02:17:50.637Z,-3
2017-01-16T02:18:09.300Z,-3
2017-01-16T02:18:27.960Z,-3
2017-01-16T02:18:46.622Z,-3
2017-01-16T02:19:05.292Z,-3
2017-01-16T02:19:23.953Z,-3
2017-01-16T02:19:42.614Z,-3
2017-01-16T02:20:01.278Z,-3
2017-01-16T02:20:19.962Z,-3
2017-01-16T02:20:38.625Z,-3.1
2017-01-16T02:20:57.298Z,-3
2017-01-16T02:21:15.961Z,-3
2017-01-16T02:21:34.614Z,-3.1
2017-01-16T02:21:53.276Z,-3.1
2017-01-16T02:22:11.940Z,-3.1
2017-01-16T02:22:30.601Z,-3.1
2017-01-16T02:22:49.297Z,-3.1
2017-01-16T02:23:07.974Z,-3.1
2017-01-16T02:23:26.638Z,-3.1
2017-01-16T02:23:45.301Z,-3.1
2017-01-16T02:24:03.957Z,-3.1
2017-01-16T02:24:22.626Z,-3.1
2017-01-16T02:24:41.291Z,-3.1
2017-01-16T02:24:59.985Z,-3.1
2017-01-16T02:25:18.643Z,-3.1
2017-01-16T02:25:37.307Z,-3.1
2017-01-16T02:25:55.968Z,-3.1
2017-01-16T02:26:14.626Z,-3.1
2017-01-16T02:26:33.289Z,-3.2
2017-01-16T02:26:51.956Z,-3.1
2017-01-16T02:27:10.616Z,-3.1
2017-01-16T02:27:29.281Z,-3.1
2017-01-16T02:27:47.940Z,-3.2
2017-01-16T02:28:06.606Z,-3.2
2017-01-16T02:28:25.269Z,-3.2
2017-01-16T02:28:43.930Z,-3.2
2017-01-16T02:29:02.587Z,-3.2
2017-01-16T02:29:21.251Z,-3.2
2017-01-16T02:29:39.938Z,-3.2
2017-01-16T02:29:58.597Z,-3.2
2017-01-16T02:30:17.258Z,-3.3
2017-01-16T02:30:35.917Z,-3.3
2017-01-16T02:30:54.575Z,-3.3
2017-01-16T02:31:13.258Z,-3.3
2017-01-16T02:31:31.918Z,-3.3
2017-01-16T02:31:50.579Z,-3.3
2017-01-16T02:32:09.240Z,-3.3
2017-01-16T02:32:27.905Z,-3.3
2017-01-16T02:32:46.577Z,-3.3
2017-01-16T02:33:05.243Z,-3.3
2017-01-16T02:33:23.907Z,-3.3
2017-01-16T02:33:42.573Z,-3.4
2017-01-16T02:34:01.237Z,-3.4
2017-01-16T02:34:19.948Z,-3.4
2017-01-16T02:34:38.612Z,-3.4
2017-01-16T02:34:57.272Z,-3.4
2017-01-16T02:35:15.931Z,-3.4
2017-01-16T02:35:34.600Z,-3.4
2017-01-16T02:35:53.264Z,-3.4
2017-01-16T02:36:11.925Z,-3.4
2017-01-16T02:36:30.588Z,-3.4
2017-01-16T02:36:49.253Z,-3.4
2017-01-16T02:37:07.911Z,-3.5
2017-01-16T02:37:26.565Z,-3.5
2017-01-16T02:37:45.227Z,-3.5
2017-01-16T02:38:03.900Z,-3.5
2017-01-16T02:38:22.580Z,-3.5
2017-01-16T02:38:41.241Z,-3.5
2017-01-16T02:38:59.939Z,-3.5
2017-01-16T02:39:18.602Z,-3.5
2017-01-16T02:39:37.269Z,-3.5
2017-01-16T02:39:55.927Z,-3.5
2017-01-16T02:40:14.586Z,-3.5
2017-01-16T02:40:33.247Z,-3.5
2017-01-16T02:40:51.911Z,-3.5
2017-01-16T02:41:10.568Z,-3.5
2017-01-16T02:41:29.232Z,-3.5
2017-01-16T02:41:47.893Z,-3.5
2017-01-16T02:42:06.555Z,-3.5
2017-01-16T02:42:25.217Z,-3.5
2017-01-16T02:42:43.890Z,-3.5
2017-01-16T02:43:02.555Z,-3.5
2017-01-16T02:43:21.235Z,-3.6
2017-01-16T02:43:39.917Z,-3.6
2017-01-16T02:43:58.577Z,-3.6
2017-01-16T02:44:17.238Z,-3.6
2017-01-16T02:44:35.902Z,-3.6
2017-01-16T02:44:54.558Z,-3.6
2017-01-16T02:45:13.219Z,-3.7
2017-01-16T02:45:31.889Z,-3.7
2017-01-16T02:45:50.550Z,-3.7
2017-01-16T02:46:09.206Z,-3.7
2017-01-16T02:46:27.869Z,-3.7
2017-01-16T02:46:46.529Z,-3.7
2017-01-16T02:47:05.197Z,-3.7
2017-01-16T02:47:23.852Z,-3.7
2017-01-16T02:47:42.512Z,-3.8
2017-01-16T02:48:01.175Z,-3.7
2017-01-16T02:48:19.864Z,-3.8
2017-01-16T02:48:38.533Z,-3.8
2017-01-16T02:48:57.195Z,-3.7
2017-01-16T02:49:15.860Z,-3.8
2017-01-16T02:49:34.520Z,-3.7
2017-01-16T02:49:53.196Z,-3.7
2017-01-16T02:50:11.863Z,-3.7
2017-01-16T02:50:30.530Z,-3.7
2017-01-16T02:50:49.192Z,-3.7
2017-01-16T02:51:07.849Z,-3.7
2017-01-16T02:51:26.509Z,-3.8
2017-01-16T02:51:45.178Z,-3.7
2017-01-16T02:52:03.837Z,-3.8
2017-01-16T02:52:22.600Z,-3.8
2017-01-16T02:52:41.453Z,-3.8
2017-01-16T02:53:00.308Z,-3.8
2017-01-16T02:53:19.127Z,-3.8
2017-01-16T02:53:37.840Z,-3.8
2017-01-16T02:53:56.507Z,-3.8
2017-01-16T02:54:15.163Z,-3.8
2017-01-16T02:54:33.820Z,-3.8
2017-01-16T02:54:52.482Z,-3.8
2017-01-16T02:55:11.145Z,-3.9
2017-01-16T02:55:29.831Z,-3.9
2017-01-16T02:55:48.494Z,-3.9
2017-01-16T02:56:07.157Z,-3.9
2017-01-16T02:56:25.823Z,-3.9
2017-01-16T02:56:44.482Z,-4
2017-01-16T02:57:03.150Z,-4
2017-01-16T02:57:21.813Z,-4
2017-01-16T02:57:40.474Z,-4
2017-01-16T02:57:59.134Z,-4
2017-01-16T02:58:17.797Z,-4
2017-01-16T02:58:36.477Z,-4.1
2017-01-16T02:58:55.136Z,-4.1
2017-01-16T02:59:13.813Z,-4.1
2017-01-16T02:59:32.470Z,-4.1
2017-01-16T02:59:51.149Z,-4.1
2017-01-16T03:00:09.834Z,-4.1
2017-01-16T03:00:28.496Z,-4.1
2017-01-16T03:00:47.158Z,-4.1
2017-01-16T03:01:05.818Z,-4.1
2017-01-16T03:01:24.480Z,-4.1
2017-01-16T03:01:43.142Z,-4.1
2017-01-16T03:02:01.804Z,-4.1
2017-01-16T03:02:20.471Z,-4.1
2017-01-16T03:02:39.139Z,-4.1
2017-01-16T03:02:57.797Z,-4.1
2017-01-16T03:03:16.454Z,-4.1
2017-01-16T03:03:35.118Z,-4.1
2017-01-16T03:03:53.784Z,-4.1
2017-01-16T03:04:12.450Z,-4.1
2017-01-16T03:04:31.112Z,-4.1
2017-01-16T03:04:49.805Z,-4.1
2017-01-16T03:05:08.469Z,-4.1
2017-01-16T03:05:27.127Z,-4.1
2017-01-16T03:05:45.790Z,-4.1
2017-01-16T03:06:04.455Z,-4.1
2017-01-16T03:06:23.117Z,-4.1
2017-01-16T03:06:41.774Z,-4
2017-01-16T03:07:00.436Z,-4
2017-01-16T03:07:19.103Z,-4
2017-01-16T03:07:37.763Z,-4
2017-01-16T03:07:56.426Z,-3.9
2017-01-16T03:08:15.089Z,-3.9
2017-01-16T03:08:33.759Z,-3.9
2017-01-16T03:08:52.419Z,-3.9
2017-01-16T03:09:11.084Z,-3.8
2017-01-16T03:09:29.766Z,-3.8
2017-01-16T03:09:48.432Z,-3.8
2017-01-16T03:10:07.097Z,-3.8
2017-01-16T03:10:25.764Z,-3.8
2017-01-16T03:10:44.422Z,-3.8
2017-01-16T03:11:03.080Z,-3.8
2017-01-16T03:11:21.737Z,-3.8
2017-01-16T03:11:40.401Z,-3.7
2017-01-16T03:11:59.059Z,-3.7
2017-01-16T03:12:17.734Z,-3.7
2017-01-16T03:12:36.395Z,-3.8
2017-01-16T03:12:55.063Z,-3.8
2017-01-16T03:13:13.722Z,-3.8
2017-01-16T03:13:32.392Z,-3.7
2017-01-16T03:13:51.065Z,-3.8
2017-01-16T03:14:09.750Z,-3.8
2017-01-16T03:14:28.405Z,-3.8
2017-01-16T03:14:47.073Z,-3.8
2017-01-16T03:15:05.748Z,-3.8
2017-01-16T03:15:24.410Z,-3.8
2017-01-16T03:15:43.072Z,-3.8
2017-01-16T03:16:01.736Z,-3.8
2017-01-16T03:16:20.398Z,-3.7
2017-01-16T03:16:39.063Z,-3.7
2017-01-16T03:16:57.720Z,-3.7
2017-01-16T03:17:16.390Z,-3.7
2017-01-16T03:17:35.053Z,-3.7
2017-01-16T03:17:53.719Z,-3.7
2017-01-16T03:18:12.379Z,-3.7
2017-01-16T03:18:31.046Z,-3.7
2017-01-16T03:18:49.732Z,-3.7
2017-01-16T03:19:08.394Z,-3.7
2017-01-16T03:19:27.055Z,-3.7
2017-01-16T03:19:45.727Z,-3.6
2017-01-16T03:20:04.411Z,-3.6
2017-01-16T03:20:23.097Z,-3.6
2017-01-16T03:20:41.762Z,-3.6
2017-01-16T03:21:00.425Z,-3.6
2017-01-16T03:21:19.084Z,-3.5
2017-01-16T03:21:37.743Z,-3.5
2017-01-16T03:21:56.417Z,-3.5
2017-01-16T03:22:15.079Z,-3.5
2017-01-16T03:22:33.750Z,-3.5
2017-01-16T03:22:52.403Z,-3.5
2017-01-16T03:23:11.077Z,-3.5
2017-01-16T03:23:29.766Z,-3.5
2017-01-16T03:23:48.435Z,-3.5
2017-01-16T03:24:07.090Z,-3.5
2017-01-16T03:24:25.751Z,-3.5
2017-01-16T03:24:44.409Z,-3.5
2017-01-16T03:25:03.074Z,-3.5
2017-01-16T03:25:21.733Z,-3.5
2017-01-16T03:25:40.404Z,-3.5
2017-01-16T03:25:59.069Z,-3.5
2017-01-16T03:26:17.730Z,-3.4
2017-01-16T03:26:36.391Z,-3.4
2017-01-16T03:26:55.055Z,-3.4
2017-01-16T03:27:13.730Z,-3.4
2017-01-16T03:27:32.390Z,-3.4
2017-01-16T03:27:51.056Z,-3.4
2017-01-16T03:28:09.753Z,-3.4
2017-01-16T03:28:28.417Z,-3.4
2017-01-16T03:28:47.080Z,-3.4
2017-01-16T03:29:05.745Z,-3.4
2017-01-16T03:29:24.405Z,-3.5
2017-01-16T03:29:43.068Z,-3.5
2017-01-16T03:30:01.728Z,-3.5
2017-01-16T03:30:20.382Z,-3.5
2017-01-16T03:30:39.040Z,-3.5
2017-01-16T03:30:57.722Z,-3.4
2017-01-16T03:31:16.383Z,-3.4
2017-01-16T03:31:35.041Z,-3.5
2017-01-16T03:31:53.696Z,-3.4
2017-01-16T03:32:12.397Z,-3.4
2017-01-16T03:32:31.065Z,-3.4
2017-01-16T03:32:49.751Z,-3.5
2017-01-16T03:33:08.413Z,-3.5
2017-01-16T03:33:27.075Z,-3.5
2017-01-16T03:33:45.745Z,-3.4
2017-01-16T03:34:04.399Z,-3.4
2017-01-16T03:34:23.057Z,-3.4
2017-01-16T03:34:41.731Z,-3.4
2017-01-16T03:35:00.419Z,-3.5
2017-01-16T03:35:19.075Z,-3.5
2017-01-16T03:35:37.739Z,-3.4
2017-01-16T03:35:56.408Z,-3.4
2017-01-16T03:36:15.074Z,-3.4
2017-01-16T03:36:33.742Z,-3.4
2017-01-16T03:36:52.405Z,-3.5
2017-01-16T03:37:11.067Z,-3.5
2017-01-16T03:37:29.755Z,-3.5
2017-01-16T03:37:48.417Z,-3.5
2017-01-16T03:38:07.084Z,-3.5
2017-01-16T03:38:25.749Z,-3.5
2017-01-16T03:38:44.405Z,-3.5
2017-01-16T03:39:03.075Z,-3.5
2017-01-16T03:39:21.736Z,-3.5
2017-01-16T03:39:40.393Z,-3.5
2017-01-16T03:39:59.053Z,-3.5
2017-01-16T03:40:17.715Z,-3.6
2017-01-16T03:40:36.378Z,-3.6
2017-01-16T03:40:55.039Z,-3.6
2017-01-16T03:41:13.701Z,-3.6
2017-01-16T03:41:32.363Z,-3.6
2017-01-16T03:41:51.026Z,-3.6
2017-01-16T03:42:09.716Z,-3.7
2017-01-16T03:42:28.374Z,-3.7
2017-01-16T03:42:47.042Z,-3.7
2017-01-16T03:43:05.706Z,-3.7
2017-01-16T03:43:24.371Z,-3.7
2017-01-16T03:43:43.036Z,-3.7
2017-01-16T03:44:01.695Z,-3.7
2017-01-16T03:44:20.375Z,-3.7
2017-01-16T03:44:39.036Z,-3.7
2017-01-16T03:44:57.697Z,-3.7
2017-01-16T03:45:16.367Z,-3.7
2017-01-16T03:45:35.032Z,-3.7
2017-01-16T03:45:53.697Z,-3.7
2017-01-16T03:46:12.355Z,-3.6
2017-01-16T03:46:31.028Z,-3.6
2017-01-16T03:46:49.729Z,-3.7
2017-01-16T03:47:08.388Z,-3.6
2017-01-16T03:47:27.054Z,-3.6
2017-01-16T03:47:45.718Z,-3.6
2017-01-16T03:48:04.380Z,-3.6
2017-01-16T03:48:23.066Z,-3.7
2017-01-16T03:48:41.729Z,-3.6
2017-01-16T03:49:00.396Z,-3.7
2017-01-16T03:49:19.055Z,-3.6
2017-01-16T03:49:37.721Z,-3.6
2017-01-16T03:49:56.380Z,-3.6
2017-01-16T03:50:15.048Z,-3.6
2017-01-16T03:50:33.711Z,-3.6
2017-01-16T03:50:52.370Z,-3.6
2017-01-16T03:51:11.043Z,-3.6
2017-01-16T03:51:29.740Z,-3.6
2017-01-16T03:51:48.397Z,-3.6
2017-01-16T03:52:07.059Z,-3.6
2017-01-16T03:52:25.718Z,-3.6
2017-01-16T03:52:44.377Z,-3.6
2017-01-16T03:53:03.080Z,-3.6
2017-01-16T03:53:21.744Z,-3.6
2017-01-16T03:53:40.413Z,-3.6
2017-01-16T03:53:59.074Z,-3.6
2017-01-16T03:54:17.734Z,-3.6
2017-01-16T03:54:36.396Z,-3.6
2017-01-16T03:54:55.063Z,-3.6
2017-01-16T03:55:13.723Z,-3.6
2017-01-16T03:55:32.392Z,-3.6
2017-01-16T03:55:51.054Z,-3.6
2017-01-16T03:56:09.745Z,-3.6
2017-01-16T03:56:28.408Z,-3.6
2017-01-16T03:56:47.070Z,-3.6
2017-01-16T03:57:05.726Z,-3.6
2017-01-16T03:57:24.423Z,-3.6
2017-01-16T03:57:43.121Z,-3.6
2017-01-16T03:58:01.780Z,-3.6
2017-01-16T03:58:20.442Z,-3.6
2017-01-16T03:58:39.101Z,-3.6
2017-01-16T03:58:57.760Z,-3.6
2017-01-16T03:59:16.424Z,-3.6
2017-01-16T03:59:35.094Z,-3.6
2017-01-16T03:59:53.752Z,-3.7
2017-01-16T04:00:12.419Z,-3.7
2017-01-16T04:00:31.075Z,-3.7
2017-01-16T04:00:49.763Z,-3.7
2017-01-16T04:01:08.432Z,-3.7
2017-01-16T04:01:27.091Z,-3.7
2017-01-16T04:01:45.753Z,-3.7
2017-01-16T04:02:04.431Z,-3.7
2017-01-16T04:02:23.111Z,-3.7
2017-01-16T04:02:41.789Z,-3.7
2017-01-16T04:03:00.449Z,-3.7
2017-01-16T04:03:19.110Z,-3.8
2017-01-16T04:03:37.768Z,-3.8
2017-01-16T04:03:56.428Z,-3.8
2017-01-16T04:04:15.087Z,-3.8
2017-01-16T04:04:33.746Z,-3.8
2017-01-16T04:04:52.407Z,-3.9
2017-01-16T04:05:11.076Z,-3.8
2017-01-16T04:05:29.769Z,-3.9
2017-01-16T04:05:48.435Z,-3.9
2017-01-16T04:06:07.107Z,-3.9
2017-01-16T04:06:25.768Z,-3.9
2017-01-16T04:06:44.434Z,-3.9
2017-01-16T04:07:03.102Z,-3.9
2017-01-16T04:07:21.767Z,-3.9
2017-01-16T04:07:40.435Z,-4
2017-01-16T04:07:59.132Z,-4
2017-01-16T04:08:17.797Z,-4
2017-01-16T04:08:36.453Z,-4
2017-01-16T04:08:55.116Z,-4